createdAt,value
2019-03-26T00:01:17.952Z,94155.03
2019-03-26T00:03:46.662Z,94151.22
2019-03-26T00:06:15.330Z,94151.34
2019-03-26T00:08:43.992Z,94157.28
2019-03-26T00:11:12.557Z,94166.30
2019-03-26T00:13:41.228Z,94162.98
2019-03-26T00:16:09.870Z,94170.02
2019-03-26T00:18:38.439Z,94172.61
2019-03-26T00:21:07.050Z,94173.10
2019-03-26T00:23:35.619Z,94173.30
2019-03-26T00:26:04.257Z,94185.85
2019-03-26T00:28:33.021Z,94185.78
2019-03-26T00:31:01.660Z,94192.40
2019-03-26T00:33:36.315Z,94191.10
2019-03-26T00:36:00.687Z,94200.59
2019-03-26T00:38:29.319Z,94193.64
2019-03-26T00:40:57.973Z,94201.34
2019-03-26T00:43:26.586Z,94199.67
2019-03-26T00:45:55.151Z,94210.46
2019-03-26T00:48:23.716Z,94209.37
2019-03-26T00:50:52.544Z,94215.59
2019-03-26T00:53:21.146Z,94225.66
2019-03-26T00:55:49.640Z,94226.26
2019-03-26T00:58:18.240Z,94219.75
2019-03-26T01:00:46.949Z,94227.62
2019-03-26T01:03:15.522Z,94226.74
2019-03-26T01:05:44.138Z,94231.09
2019-03-26T01:08:12.773Z,94225.02
2019-03-26T01:10:41.407Z,94237.90
2019-03-26T01:13:10.193Z,94236.84
2019-03-26T01:15:38.926Z,94235.77
2019-03-26T01:18:07.549Z,94237.56
2019-03-26T01:20:36.514Z,94236.14
2019-03-26T01:23:05.147Z,94246.20
2019-03-26T01:25:33.787Z,94241.30
2019-03-26T01:28:02.494Z,94242.55
2019-03-26T01:30:31.064Z,94237.93
2019-03-26T01:32:59.660Z,94243.73
2019-03-26T01:35:28.301Z,94242.55
2019-03-26T01:37:56.871Z,94238.12
2019-03-26T01:40:26.722Z,94240.42
2019-03-26T01:42:55.359Z,94240.37
2019-03-26T01:45:23.995Z,94239.63
2019-03-26T01:47:52.564Z,94253.31
2019-03-26T01:50:21.203Z,94252.06
2019-03-26T01:52:49.740Z,94261.77
2019-03-26T01:55:18.300Z,94270.86
2019-03-26T01:57:48.014Z,94274.66
2019-03-26T02:00:16.855Z,94274.66
2019-03-26T02:02:45.321Z,94278.33
2019-03-26T02:05:13.991Z,94282.44
2019-03-26T02:07:42.667Z,94285.95
2019-03-26T02:10:11.309Z,94285.80
2019-03-26T02:12:39.798Z,94285.50
2019-03-26T02:15:10.307Z,94294.22
2019-03-26T02:17:38.939Z,94291.41
2019-03-26T02:20:07.583Z,94289.89
2019-03-26T02:22:36.426Z,94298.55
2019-03-26T02:25:05.466Z,94304.97
2019-03-26T02:27:34.097Z,94305.58
2019-03-26T02:30:02.744Z,94309.41
2019-03-26T02:32:31.376Z,94307.31
2019-03-26T02:35:16.366Z,94311.70
2019-03-26T02:37:30.296Z,94309.73
2019-03-26T02:39:58.760Z,94317.48
2019-03-26T02:42:27.402Z,94318.11
2019-03-26T02:44:56.256Z,94318.32
2019-03-26T02:47:24.736Z,94321.98
2019-03-26T02:49:53.230Z,94330.92
2019-03-26T02:52:21.889Z,94326.57
2019-03-26T02:54:50.540Z,94334.34
2019-03-26T02:57:19.036Z,94341.79
2019-03-26T02:59:47.833Z,94343.16
2019-03-26T03:02:16.469Z,94353.33
2019-03-26T03:04:45.097Z,94357.48
2019-03-26T03:07:13.888Z,94362.50
2019-03-26T03:09:42.526Z,94365.84
2019-03-26T03:12:11.156Z,94374.80
2019-03-26T03:14:39.802Z,94375.43
2019-03-26T03:17:08.297Z,94380.73
2019-03-26T03:19:36.866Z,94382.41
2019-03-26T03:22:05.462Z,94386.19
2019-03-26T03:24:34.164Z,94389.39
2019-03-26T03:27:02.833Z,94390.91
2019-03-26T03:29:31.339Z,94405.33
2019-03-26T03:31:59.962Z,94414.87
2019-03-26T03:34:28.641Z,94418.51
2019-03-26T03:36:57.213Z,94415.91
2019-03-26T03:39:25.698Z,94434.58
2019-03-26T03:41:54.704Z,94442.61
2019-03-26T03:44:23.431Z,94442.60
2019-03-26T03:46:54.103Z,94449.86
2019-03-26T03:49:25.543Z,94450.47
2019-03-26T03:51:56.690Z,94449.42
2019-03-26T03:54:25.722Z,94463.67
2019-03-26T03:56:55.826Z,94463.22
2019-03-26T03:59:26.496Z,94462.45
2019-03-26T04:01:54.985Z,94466.09
2019-03-26T04:04:23.790Z,94470.48
2019-03-26T04:06:52.430Z,94460.16
2019-03-26T04:09:21.060Z,94472.44
2019-03-26T04:11:49.595Z,94483.80
2019-03-26T04:14:18.097Z,94495.61
2019-03-26T04:16:46.726Z,94499.83
2019-03-26T04:19:15.597Z,94508.81
2019-03-26T04:21:44.085Z,94506.97
2019-03-26T04:24:12.583Z,94510.58
2019-03-26T04:26:42.283Z,94517.55
2019-03-26T04:29:10.780Z,94520.14
2019-03-26T04:31:39.413Z,94530.43
2019-03-26T04:34:08.328Z,94525.44
2019-03-26T04:36:36.896Z,94528.19
2019-03-26T04:39:07.439Z,94530.95
2019-03-26T04:41:36.405Z,94539.29
2019-03-26T04:44:05.032Z,94541.61
2019-03-26T04:46:33.524Z,94551.94
2019-03-26T04:49:02.053Z,94558.50
2019-03-26T04:51:30.701Z,94555.31
2019-03-26T04:53:59.333Z,94551.98
2019-03-26T04:56:27.863Z,94562.40
2019-03-26T04:58:56.362Z,94563.74
2019-03-26T05:01:24.986Z,94565.44
2019-03-26T05:03:53.644Z,94571.47
2019-03-26T05:06:22.143Z,94566.29
2019-03-26T05:08:50.702Z,94578.12
2019-03-26T05:11:19.309Z,94579.68
2019-03-26T05:13:47.807Z,94582.53
2019-03-26T05:16:16.442Z,94592.66
2019-03-26T05:18:45.114Z,94590.99
2019-03-26T05:21:13.685Z,94594.78
2019-03-26T05:23:42.235Z,94594.65
2019-03-26T05:26:10.910Z,94596.77
2019-03-26T05:28:39.553Z,94594.67
2019-03-26T05:31:08.065Z,94598.63
2019-03-26T05:33:36.607Z,94592.86
2019-03-26T05:36:05.239Z,94602.72
2019-03-26T05:38:33.888Z,94604.44
2019-03-26T05:41:02.415Z,94604.93
2019-03-26T05:43:30.917Z,94606.00
2019-03-26T05:45:59.554Z,94605.41
2019-03-26T05:48:29.414Z,94601.92
2019-03-26T05:50:58.129Z,94605.27
2019-03-26T05:53:26.807Z,94600.59
2019-03-26T05:55:55.336Z,94603.33
2019-03-26T05:58:23.830Z,94597.42
2019-03-26T06:00:52.493Z,94600.58
2019-03-26T06:03:21.319Z,94604.55
2019-03-26T06:05:49.888Z,94599.31
2019-03-26T06:08:18.394Z,94603.67
2019-03-26T06:10:47.071Z,94607.88
2019-03-26T06:13:15.715Z,94608.06
2019-03-26T06:15:44.215Z,94601.75
2019-03-26T06:18:12.757Z,94610.92
2019-03-26T06:20:41.381Z,94609.27
2019-03-26T06:23:10.015Z,94615.79
2019-03-26T06:25:38.882Z,94620.92
2019-03-26T06:28:07.514Z,94616.93
2019-03-26T06:30:36.012Z,94622.17
2019-03-26T06:33:04.938Z,94628.42
2019-03-26T06:35:33.589Z,94624.60
2019-03-26T06:38:02.264Z,94626.30
2019-03-26T06:40:30.842Z,94629.59
2019-03-26T06:42:59.400Z,94630.45
2019-03-26T06:45:28.031Z,94634.06
2019-03-26T06:47:56.708Z,94624.70
2019-03-26T06:50:25.202Z,94635.47
2019-03-26T06:52:53.762Z,94639.09
2019-03-26T06:55:22.437Z,94633.92
2019-03-26T06:57:51.073Z,94643.61
2019-03-26T07:00:22.619Z,94643.19
2019-03-26T07:02:51.283Z,94632.42
2019-03-26T07:05:19.922Z,94632.48
2019-03-26T07:07:48.424Z,94638.02
2019-03-26T07:10:19.993Z,94633.16
2019-03-26T07:12:48.634Z,94631.81
2019-03-26T07:15:17.323Z,94627.50
2019-03-26T07:17:45.902Z,94638.93
2019-03-26T07:20:14.632Z,94637.63
2019-03-26T07:22:43.272Z,94641.05
2019-03-26T07:25:12.197Z,94643.00
2019-03-26T07:27:40.834Z,94647.60
2019-03-26T07:30:11.683Z,94653.20
2019-03-26T07:32:40.321Z,94650.50
2019-03-26T07:35:09.464Z,94651.59
2019-03-26T07:37:44.946Z,94651.48
2019-03-26T07:40:08.862Z,94648.70
2019-03-26T07:42:37.520Z,94654.31
2019-03-26T07:45:08.014Z,94647.89
2019-03-26T07:47:36.615Z,94653.53
2019-03-26T07:50:07.351Z,94656.81
2019-03-26T07:52:35.939Z,94660.59
2019-03-26T07:55:06.294Z,94658.37
2019-03-26T07:57:34.948Z,94660.44
2019-03-26T08:00:05.878Z,94670.83
2019-03-26T08:02:34.989Z,94670.66
2019-03-26T08:05:04.527Z,94668.11
2019-03-26T08:07:33.146Z,94667.09
2019-03-26T08:10:01.843Z,94671.53
2019-03-26T08:12:32.774Z,94677.55
2019-03-26T08:15:00.742Z,94676.56
2019-03-26T08:17:29.377Z,94673.05
2019-03-26T08:19:57.866Z,94677.24
2019-03-26T08:22:26.365Z,94671.19
2019-03-26T08:24:55.029Z,94664.97
2019-03-26T08:27:23.679Z,94672.31
2019-03-26T08:29:52.176Z,94674.89
2019-03-26T08:32:21.112Z,94673.64
2019-03-26T08:34:49.741Z,94682.61
2019-03-26T08:37:18.379Z,94678.95
2019-03-26T08:39:46.921Z,94681.64
2019-03-26T08:42:15.407Z,94685.34
2019-03-26T08:44:44.047Z,94685.94
2019-03-26T08:47:12.725Z,94690.13
2019-03-26T08:49:41.231Z,94690.19
2019-03-26T08:52:09.728Z,94684.77
2019-03-26T08:54:38.657Z,94685.66
2019-03-26T08:57:07.291Z,94687.63
2019-03-26T08:59:35.789Z,94693.10
2019-03-26T09:02:04.633Z,94694.83
2019-03-26T09:04:33.271Z,94693.16
2019-03-26T09:07:01.767Z,94690.33
2019-03-26T09:09:30.564Z,94689.17
2019-03-26T09:11:59.207Z,94687.92
2019-03-26T09:14:27.704Z,94688.59
2019-03-26T09:16:56.329Z,94689.22
2019-03-26T09:19:24.964Z,94684.36
2019-03-26T09:21:53.607Z,94690.67
2019-03-26T09:24:22.153Z,94686.70
2019-03-26T09:26:50.725Z,94688.61
2019-03-26T09:29:19.361Z,94689.34
2019-03-26T09:31:48.959Z,94686.89
2019-03-26T09:34:17.451Z,94683.91
2019-03-26T09:36:45.950Z,94687.87
2019-03-26T09:39:15.091Z,94692.25
2019-03-26T09:41:43.723Z,94694.47
2019-03-26T09:44:12.235Z,94694.00
2019-03-26T09:46:40.906Z,94692.47
2019-03-26T09:49:09.409Z,94696.90
2019-03-26T09:51:37.894Z,94699.35
2019-03-26T09:54:06.568Z,94706.42
2019-03-26T09:56:35.293Z,94703.61
2019-03-26T09:59:03.861Z,94704.59
2019-03-26T10:01:32.440Z,94703.19
2019-03-26T10:04:01.072Z,94706.80
2019-03-26T10:06:29.696Z,94709.73
2019-03-26T10:08:58.228Z,94710.28
2019-03-26T10:11:26.724Z,94718.59
2019-03-26T10:13:55.421Z,94717.23
2019-03-26T10:16:24.095Z,94715.41
2019-03-26T10:18:52.597Z,94719.92
2019-03-26T10:21:21.197Z,94718.09
2019-03-26T10:23:49.847Z,94718.28
2019-03-26T10:26:18.350Z,94718.63
2019-03-26T10:28:46.914Z,94721.23
2019-03-26T10:31:15.592Z,94711.12
2019-03-26T10:33:44.233Z,94718.30
2019-03-26T10:36:12.804Z,94721.23
2019-03-26T10:38:42.422Z,94700.53
2019-03-26T10:41:11.094Z,94710.17
2019-03-26T10:43:39.593Z,94712.08
2019-03-26T10:46:09.301Z,94717.11
2019-03-26T10:48:37.925Z,94718.89
2019-03-26T10:51:06.559Z,94727.50
2019-03-26T10:53:35.097Z,94721.44
2019-03-26T10:56:03.612Z,94716.97
2019-03-26T10:58:32.247Z,94721.16
2019-03-26T11:01:00.962Z,94716.54
2019-03-26T11:03:29.429Z,94718.31
2019-03-26T11:05:58.048Z,94718.45
2019-03-26T11:08:26.843Z,94720.77
2019-03-26T11:10:55.404Z,94719.27
2019-03-26T11:13:24.054Z,94715.27
2019-03-26T11:15:52.810Z,94721.07
2019-03-26T11:18:21.307Z,94714.40
2019-03-26T11:21:01.828Z,94710.17
2019-03-26T11:23:20.299Z,94706.54
2019-03-26T11:25:48.934Z,94709.88
2019-03-26T11:28:17.433Z,94706.90
2019-03-26T11:30:45.976Z,94710.55
2019-03-26T11:33:14.603Z,94709.96
2019-03-26T11:35:43.299Z,94708.16
2019-03-26T11:38:12.668Z,94712.09
2019-03-26T11:40:42.861Z,94716.19
2019-03-26T11:43:16.911Z,94706.27
2019-03-26T11:45:45.681Z,94711.92
2019-03-26T11:48:14.573Z,94710.66
2019-03-26T11:50:43.418Z,94711.19
2019-03-26T11:53:12.629Z,94715.42
2019-03-26T11:55:41.136Z,94713.16
2019-03-26T11:58:09.800Z,94712.63
2019-03-26T12:00:39.246Z,94716.86
2019-03-26T12:03:07.951Z,94709.47
2019-03-26T12:05:36.526Z,94707.88
2019-03-26T12:08:05.206Z,94713.05
2019-03-26T12:10:33.869Z,94711.98
2019-03-26T12:13:02.447Z,94712.44
2019-03-26T12:15:30.981Z,94710.56
2019-03-26T12:17:59.617Z,94719.26
2019-03-26T12:20:28.256Z,94719.14
2019-03-26T12:22:56.823Z,94717.34
2019-03-26T12:25:25.466Z,94723.70
2019-03-26T12:27:53.970Z,94718.55
2019-03-26T12:30:36.468Z,94725.38
2019-03-26T12:33:05.898Z,94720.13
2019-03-26T12:35:34.839Z,94728.55
2019-03-26T12:38:06.432Z,94733.82
2019-03-26T12:40:34.935Z,94729.86
2019-03-26T12:43:03.578Z,94729.36
2019-03-26T12:45:32.510Z,94726.73
2019-03-26T12:48:01.012Z,94731.34
2019-03-26T12:50:32.010Z,94730.70
2019-03-26T12:52:59.992Z,94728.48
2019-03-26T12:55:28.686Z,94735.95
2019-03-26T12:57:57.184Z,94732.45
2019-03-26T13:00:33.446Z,94735.44
2019-03-26T13:03:02.406Z,94731.17
2019-03-26T13:05:30.914Z,94732.36
2019-03-26T13:07:59.671Z,94734.13
2019-03-26T13:10:28.317Z,94726.59
2019-03-26T13:12:56.941Z,94731.44
2019-03-26T13:15:25.773Z,94728.56
2019-03-26T13:17:54.421Z,94730.52
2019-03-26T13:20:23.059Z,94725.55
2019-03-26T13:22:51.682Z,94733.27
2019-03-26T13:25:20.270Z,94741.82
2019-03-26T13:27:48.903Z,94736.02
2019-03-26T13:30:18.496Z,94734.21
2019-03-26T13:32:46.994Z,94745.50
2019-03-26T13:35:16.038Z,94742.89
2019-03-26T13:37:44.728Z,94743.48
2019-03-26T13:40:26.633Z,94745.34
2019-03-26T13:42:44.255Z,94740.45
2019-03-26T13:45:13.332Z,94749.53
2019-03-26T13:47:41.996Z,94754.22
2019-03-26T13:50:11.125Z,94749.28
2019-03-26T13:52:39.952Z,94751.30
2019-03-26T13:55:11.902Z,94747.88
2019-03-26T13:57:40.549Z,94752.74
2019-03-26T14:00:10.609Z,94758.01
2019-03-26T14:02:39.172Z,94762.26
2019-03-26T14:05:24.886Z,94760.20
2019-03-26T14:07:53.532Z,94760.33
2019-03-26T14:10:24.909Z,94765.27
2019-03-26T14:12:53.736Z,94763.17
2019-03-26T14:15:22.369Z,94764.82
2019-03-26T14:17:51.009Z,94767.00
2019-03-26T14:20:20.215Z,94762.62
2019-03-26T14:22:48.772Z,94758.30
2019-03-26T14:25:17.516Z,94764.56
2019-03-26T14:27:46.146Z,94762.09
2019-03-26T14:30:15.358Z,94762.89
2019-03-26T14:32:43.996Z,94759.11
2019-03-26T14:35:13.068Z,94761.39
2019-03-26T14:37:51.067Z,94758.53
2019-03-26T14:40:12.207Z,94756.64
2019-03-26T14:42:40.895Z,94763.22
2019-03-26T14:45:09.746Z,94762.45
2019-03-26T14:47:38.321Z,94760.67
2019-03-26T14:50:08.311Z,94753.34
2019-03-26T14:52:36.951Z,94752.62
2019-03-26T14:55:07.201Z,94757.30
2019-03-26T14:57:35.821Z,94759.75
2019-03-26T15:00:06.321Z,94763.57
2019-03-26T15:02:34.961Z,94770.48
2019-03-26T15:05:04.156Z,94759.12
2019-03-26T15:07:32.796Z,94770.09
2019-03-26T15:10:01.418Z,94773.01
2019-03-26T15:12:30.126Z,94775.16
2019-03-26T15:14:58.669Z,94772.99
2019-03-26T15:17:27.305Z,94780.89
2019-03-26T15:19:55.990Z,94776.80
2019-03-26T15:22:24.567Z,94788.86
2019-03-26T15:24:53.243Z,94793.75
2019-03-26T15:27:21.907Z,94779.44
2019-03-26T15:29:50.542Z,94791.14
2019-03-26T15:32:19.055Z,94788.68
2019-03-26T15:34:47.674Z,94798.34
2019-03-26T15:37:16.311Z,94802.57
2019-03-26T15:39:45.024Z,94809.56
2019-03-26T15:42:13.584Z,94802.11
2019-03-26T15:44:42.214Z,94805.48
2019-03-26T15:47:10.851Z,94807.55
2019-03-26T15:49:39.483Z,94819.59
2019-03-26T15:52:08.042Z,94819.72
2019-03-26T15:54:36.694Z,94822.11
2019-03-26T15:57:05.389Z,94806.95
2019-03-26T15:59:33.887Z,94810.72
2019-03-26T16:02:02.578Z,94817.66
2019-03-26T16:04:31.253Z,94827.68
2019-03-26T16:06:59.758Z,94826.76
2019-03-26T16:09:28.255Z,94824.50
2019-03-26T16:11:56.947Z,94830.77
2019-03-26T16:14:28.148Z,94835.38
2019-03-26T16:16:55.919Z,94833.06
2019-03-26T16:19:32.079Z,94838.73
2019-03-26T16:21:54.838Z,94839.47
2019-03-26T16:24:23.417Z,94834.59
2019-03-26T16:26:52.121Z,94830.92
2019-03-26T16:29:20.754Z,94844.04
2019-03-26T16:31:49.265Z,94839.10
2019-03-26T16:34:17.810Z,94826.30
2019-03-26T16:36:58.954Z,94840.92
2019-03-26T16:39:16.838Z,94846.54
2019-03-26T16:41:49.418Z,94842.61
2019-03-26T16:44:15.648Z,94853.48
2019-03-26T16:46:44.323Z,94847.70
2019-03-26T16:49:12.974Z,94850.14
2019-03-26T16:51:41.531Z,94854.59
2019-03-26T16:54:10.361Z,94860.98
2019-03-26T16:56:39.136Z,94860.67
2019-03-26T16:59:07.716Z,94866.20
2019-03-26T17:01:36.248Z,94872.62
2019-03-26T17:04:04.893Z,94877.62
2019-03-26T17:06:33.414Z,94880.23
2019-03-26T17:09:02.045Z,94884.91
2019-03-26T17:11:30.682Z,94888.91
2019-03-26T17:13:59.351Z,94887.55
2019-03-26T17:16:28.064Z,94888.95
2019-03-26T17:18:56.582Z,94896.25
2019-03-26T17:21:25.380Z,94894.43
2019-03-26T17:23:54.116Z,94911.92
2019-03-26T17:26:22.870Z,94907.53
2019-03-26T17:28:51.541Z,94914.06
2019-03-26T17:31:20.330Z,94911.80
2019-03-26T17:33:49.121Z,94915.58
2019-03-26T17:36:17.815Z,94924.13
2019-03-26T17:38:46.604Z,94923.22
2019-03-26T17:41:15.319Z,94927.48
2019-03-26T17:43:43.924Z,94930.20
2019-03-26T17:46:12.749Z,94930.20
2019-03-26T17:48:41.401Z,94937.97
2019-03-26T17:51:10.337Z,94937.19
2019-03-26T17:53:38.905Z,94947.85
2019-03-26T17:56:07.537Z,94945.70
2019-03-26T17:58:36.576Z,94947.83
2019-03-26T18:01:05.555Z,94945.84
2019-03-26T18:03:34.110Z,94956.81
2019-03-26T18:06:02.944Z,94959.23
2019-03-26T18:08:31.698Z,94962.70
2019-03-26T18:11:00.314Z,94964.66
2019-03-26T18:13:28.882Z,94966.31
2019-03-26T18:15:57.530Z,94970.75
2019-03-26T18:18:26.265Z,94975.28
2019-03-26T18:20:54.852Z,94984.38
2019-03-26T18:23:23.517Z,94980.27
2019-03-26T18:25:52.013Z,94991.03
2019-03-26T18:28:20.908Z,94993.16
2019-03-26T18:30:49.575Z,94994.05
2019-03-26T18:33:18.247Z,94987.75
2019-03-26T18:35:46.948Z,95002.06
2019-03-26T18:38:15.470Z,95005.23
2019-03-26T18:40:44.112Z,95004.00
2019-03-26T18:43:12.781Z,95008.02
2019-03-26T18:45:41.310Z,95005.94
2019-03-26T18:48:09.950Z,95005.94
2019-03-26T18:50:38.668Z,95007.30
2019-03-26T18:53:07.337Z,95004.38
2019-03-26T18:55:35.827Z,95012.01
2019-03-26T18:58:04.640Z,95018.48
2019-03-26T19:00:38.094Z,95014.22
2019-03-26T19:03:07.237Z,95017.81
2019-03-26T19:05:35.771Z,95021.02
2019-03-26T19:08:05.009Z,95022.08
2019-03-26T19:10:35.010Z,95016.02
2019-03-26T19:13:03.805Z,95026.11
2019-03-26T19:15:32.489Z,95031.37
2019-03-26T19:18:01.128Z,95025.09
2019-03-26T19:20:29.857Z,95031.50
2019-03-26T19:22:58.653Z,95026.72
2019-03-26T19:25:27.434Z,95033.84
2019-03-26T19:27:56.308Z,95028.38
2019-03-26T19:30:24.943Z,95036.70
2019-03-26T19:32:53.695Z,95033.04
2019-03-26T19:35:22.398Z,95039.10
2019-03-26T19:37:50.963Z,95046.52
2019-03-26T19:40:19.595Z,95048.91
2019-03-26T19:42:48.253Z,95040.32
2019-03-26T19:45:17.229Z,95045.27
2019-03-26T19:47:46.018Z,95053.14
2019-03-26T19:50:14.860Z,95057.13
2019-03-26T19:52:43.359Z,95054.46
2019-03-26T19:55:12.372Z,95063.38
2019-03-26T19:57:41.069Z,95061.53
2019-03-26T20:00:15.076Z,95054.94
2019-03-26T20:02:43.763Z,95059.95
2019-03-26T20:05:12.496Z,95065.23
2019-03-26T20:07:41.255Z,95069.02
2019-03-26T20:10:11.065Z,95071.33
2019-03-26T20:12:39.615Z,95066.75
2019-03-26T20:15:11.213Z,95078.75
2019-03-26T20:17:39.883Z,95073.09
2019-03-26T20:20:10.618Z,95077.56
2019-03-26T20:22:39.386Z,95070.73
2019-03-26T20:25:09.177Z,95081.45
2019-03-26T20:27:37.724Z,95085.54
2019-03-26T20:30:07.996Z,95088.97
2019-03-26T20:32:36.888Z,95085.32
2019-03-26T20:35:08.552Z,95099.91
2019-03-26T20:37:37.337Z,95100.19
2019-03-26T20:40:10.802Z,95099.36
2019-03-26T20:42:39.448Z,95104.39
2019-03-26T20:45:14.354Z,95104.42
2019-03-26T20:47:42.417Z,95103.97
2019-03-26T20:50:11.641Z,95099.48
2019-03-26T20:52:40.406Z,95100.95
2019-03-26T20:55:11.627Z,95100.60
2019-03-26T20:57:40.255Z,95104.12
2019-03-26T21:00:11.888Z,95108.98
2019-03-26T21:02:40.482Z,95108.91
2019-03-26T21:05:09.508Z,95096.22
2019-03-26T21:07:38.634Z,95107.69
2019-03-26T21:10:07.993Z,95122.11
2019-03-26T21:12:36.713Z,95122.11
2019-03-26T21:15:08.507Z,95117.18
2019-03-26T21:17:37.553Z,95123.65
2019-03-26T21:20:08.645Z,95129.52
2019-03-26T21:22:37.140Z,95133.31
2019-03-26T21:25:06.207Z,95130.94
2019-03-26T21:27:34.833Z,95134.67
2019-03-26T21:30:11.220Z,95130.41
2019-03-26T21:32:35.124Z,95142.75
2019-03-26T21:35:04.962Z,95144.12
2019-03-26T21:37:33.594Z,95147.88
2019-03-26T21:40:02.255Z,95150.98
2019-03-26T21:42:30.968Z,95161.61
2019-03-26T21:44:59.458Z,95168.95
2019-03-26T21:47:28.056Z,95166.05
2019-03-26T21:49:56.683Z,95164.94
2019-03-26T21:52:25.383Z,95171.41
2019-03-26T21:54:53.912Z,95172.94
2019-03-26T21:57:22.408Z,95156.33
2019-03-26T21:59:51.035Z,95173.34
2019-03-26T22:02:19.696Z,95179.45
2019-03-26T22:04:48.188Z,95186.67
2019-03-26T22:07:16.753Z,95187.61
2019-03-26T22:09:45.382Z,95187.98
2019-03-26T22:12:13.950Z,95183.89
2019-03-26T22:14:42.696Z,95192.15
2019-03-26T22:17:11.256Z,95195.75
2019-03-26T22:19:39.879Z,95199.42
2019-03-26T22:22:08.404Z,95197.67
2019-03-26T22:24:37.036Z,95192.33
2019-03-26T22:27:05.662Z,95193.56
2019-03-26T22:29:34.201Z,95196.24
2019-03-26T22:32:02.692Z,95203.06
2019-03-26T22:34:31.320Z,95207.72
2019-03-26T22:36:59.986Z,95206.03
2019-03-26T22:39:28.543Z,95200.53
2019-03-26T22:41:57.030Z,95207.63
2019-03-26T22:44:31.182Z,95204.35
2019-03-26T22:46:56.064Z,95210.00
2019-03-26T22:49:24.548Z,95207.77
2019-03-26T22:51:53.075Z,95219.40
2019-03-26T22:54:21.722Z,95216.48
2019-03-26T22:56:50.456Z,95208.17
2019-03-26T22:59:18.943Z,95212.31
2019-03-26T23:01:47.581Z,95219.45
2019-03-26T23:04:16.172Z,95212.41
2019-03-26T23:06:44.655Z,95210.56
2019-03-26T23:09:13.287Z,95221.66
2019-03-26T23:11:41.916Z,95216.89
2019-03-26T23:14:10.475Z,95214.86
2019-03-26T23:16:39.134Z,95214.86
2019-03-26T23:19:07.766Z,95219.17
2019-03-26T23:21:36.395Z,95215.87
2019-03-26T23:24:05.070Z,95215.05
2019-03-26T23:26:33.713Z,95221.09
2019-03-26T23:29:02.341Z,95214.78
2019-03-26T23:31:31.005Z,95210.20
2019-03-26T23:33:59.561Z,95212.57
2019-03-26T23:36:28.052Z,95214.28
2019-03-26T23:38:56.721Z,95217.44
2019-03-26T23:41:25.211Z,95216.59
2019-03-26T23:43:53.839Z,95218.80
2019-03-26T23:46:22.717Z,95215.23
2019-03-26T23:48:51.285Z,95218.11
2019-03-26T23:51:19.843Z,95217.44
2019-03-26T23:53:48.503Z,95216.66
2019-03-26T23:56:17.128Z,95220.69
2019-03-26T23:58:45.617Z,95210.20
